Minnetrista, Minnesota
Current Conditions -  °F | °C
As of 5:53 AM on Monday 22 Dec 2014 (Local Time) from KFCM Reporting Station
Haze Haze  
Wind Chill: -1°   Ceiling: 700
Heat Index:   Visibility: 4mi
Dew Point:   Wind: 13mph
Humidity: 93%   Direction: 130°SE
Pressure: 29.64"   Gusts: NA
Location:  44.8587°N, 93.7796°W
Report Text: KFCM 221153Z 13011KT 4SM BR OVC007 03/02 A2964 RMK AO2 SLP044 70006 T00330022 10039 20033 56008
Loading
Personal Weather Stations






























Interactive Weather Map New forecast layout! Learn more

10-Day Weather Forecast

Advertisements
Track Severe Weather on mobile